sensor_id;sensor_type;location;lat;lon;timestamp;pressure;altitude;pressure_sealevel;temperature;humidity
18813;BME280;9534;51.140;6.296;2023-07-13T00:00:22;100438.16;;;16.09;100.00
18813;BME280;9534;51.140;6.296;2023-07-13T00:04:27;100446.03;;;16.01;100.00
18813;BME280;9534;51.140;6.296;2023-07-13T00:08:33;100449.78;;;15.95;100.00
18813;BME280;9534;51.140;6.296;2023-07-13T00:12:36;100455.69;;;15.87;100.00
18813;BME280;9534;51.140;6.296;2023-07-13T00:16:42;100452.16;;;15.75;100.00
18813;BME280;9534;51.140;6.296;2023-07-13T00:20:47;100450.41;;;15.69;100.00
18813;BME280;9534;51.140;6.296;2023-07-13T00:24:50;100449.88;;;15.55;100.00
18813;BME280;9534;51.140;6.296;2023-07-13T00:28:53;100458.38;;;15.54;100.00
18813;BME280;9534;51.140;6.296;2023-07-13T00:32:56;100453.84;;;15.48;100.00
18813;BME280;9534;51.140;6.296;2023-07-13T00:37:18;100457.03;;;15.40;100.00
18813;BME280;9534;51.140;6.296;2023-07-13T00:41:21;100462.91;;;15.32;100.00
18813;BME280;9534;51.140;6.296;2023-07-13T00:49:46;100460.16;;;15.20;100.00
18813;BME280;9534;51.140;6.296;2023-07-13T00:53:50;100453.06;;;15.24;100.00
18813;BME280;9534;51.140;6.296;2023-07-13T00:57:56;100453.44;;;15.28;100.00
18813;BME280;9534;51.140;6.296;2023-07-13T01:01:59;100465.44;;;15.22;100.00
18813;BME280;9534;51.140;6.296;2023-07-13T01:06:02;100461.94;;;15.26;100.00
18813;BME280;9534;51.140;6.296;2023-07-13T01:10:07;100463.75;;;15.21;100.00
18813;BME280;9534;51.140;6.296;2023-07-13T01:14:11;100470.38;;;15.20;100.00
18813;BME280;9534;51.140;6.296;2023-07-13T01:18:17;100462.09;;;15.20;100.00
18813;BME280;9534;51.140;6.296;2023-07-13T01:22:22;100466.19;;;15.06;100.00
18813;BME280;9534;51.140;6.296;2023-07-13T01:26:28;100473.50;;;15.12;100.00
18813;BME280;9534;51.140;6.296;2023-07-13T01:30:30;100468.56;;;15.14;100.00
18813;BME280;9534;51.140;6.296;2023-07-13T01:34:35;100465.34;;;15.17;100.00
18813;BME280;9534;51.140;6.296;2023-07-13T01:38:40;100453.84;;;15.08;100.00
18813;BME280;9534;51.140;6.296;2023-07-13T01:42:45;100462.97;;;15.09;100.00
18813;BME280;9534;51.140;6.296;2023-07-13T01:46:48;100466.91;;;15.13;100.00
18813;BME280;9534;51.140;6.296;2023-07-13T01:50:51;100464.84;;;15.08;100.00
18813;BME280;9534;51.140;6.296;2023-07-13T01:54:55;100480.22;;;15.04;100.00
18813;BME280;9534;51.140;6.296;2023-07-13T01:58:59;100480.09;;;15.11;100.00
18813;BME280;9534;51.140;6.296;2023-07-13T02:03:02;100479.38;;;15.04;100.00
18813;BME280;9534;51.140;6.296;2023-07-13T02:07:07;100487.28;;;15.00;100.00
18813;BME280;9534;51.140;6.296;2023-07-13T02:11:11;100482.03;;;14.99;100.00
18813;BME280;9534;51.140;6.296;2023-07-13T02:15:15;100486.50;;;14.88;100.00
18813;BME280;9534;51.140;6.296;2023-07-13T02:19:18;100486.59;;;14.93;100.00
18813;BME280;9534;51.140;6.296;2023-07-13T02:23:21;100484.44;;;14.84;100.00
18813;BME280;9534;51.140;6.296;2023-07-13T02:27:25;100492.72;;;14.84;100.00
18813;BME280;9534;51.140;6.296;2023-07-13T02:31:28;100492.97;;;14.83;100.00
18813;BME280;9534;51.140;6.296;2023-07-13T02:35:31;100502.41;;;14.75;100.00
18813;BME280;9534;51.140;6.296;2023-07-13T02:39:34;100494.41;;;14.74;100.00
18813;BME280;9534;51.140;6.296;2023-07-13T02:43:39;100504.56;;;14.73;100.00
18813;BME280;9534;51.140;6.296;2023-07-13T02:47:43;100500.03;;;14.67;100.00
18813;BME280;9534;51.140;6.296;2023-07-13T02:51:46;100499.91;;;14.74;100.00
18813;BME280;9534;51.140;6.296;2023-07-13T02:55:49;100508.78;;;14.76;100.00
18813;BME280;9534;51.140;6.296;2023-07-13T02:59:53;100512.47;;;14.81;100.00
18813;BME280;9534;51.140;6.296;2023-07-13T03:03:57;100508.41;;;14.83;100.00
18813;BME280;9534;51.140;6.296;2023-07-13T03:08:00;100516.06;;;14.70;100.00
18813;BME280;9534;51.140;6.296;2023-07-13T03:12:06;100518.94;;;14.75;100.00
18813;BME280;9534;51.140;6.296;2023-07-13T03:16:12;100517.25;;;14.74;100.00
18813;BME280;9534;51.140;6.296;2023-07-13T03:20:21;100518.22;;;14.68;100.00
18813;BME280;9534;51.140;6.296;2023-07-13T03:24:25;100515.09;;;14.76;100.00
18813;BME280;9534;51.140;6.296;2023-07-13T03:28:28;100519.06;;;14.69;100.00
18813;BME280;9534;51.140;6.296;2023-07-13T03:32:33;100529.72;;;14.65;100.00
18813;BME280;9534;51.140;6.296;2023-07-13T03:36:36;100539.06;;;14.64;100.00
18813;BME280;9534;51.140;6.296;2023-07-13T03:40:43;100540.72;;;14.65;100.00
18813;BME280;9534;51.140;6.296;2023-07-13T03:44:46;100543.00;;;14.57;100.00
18813;BME280;9534;51.140;6.296;2023-07-13T03:48:55;100557.75;;;14.62;100.00
18813;BME280;9534;51.140;6.296;2023-07-13T03:52:59;100558.22;;;14.59;100.00
18813;BME280;9534;51.140;6.296;2023-07-13T03:57:02;100560.75;;;14.61;100.00
18813;BME280;9534;51.140;6.296;2023-07-13T04:01:09;100555.72;;;14.58;100.00
18813;BME280;9534;51.140;6.296;2023-07-13T04:05:14;100554.25;;;14.55;100.00
18813;BME280;9534;51.140;6.296;2023-07-13T04:09:19;100567.56;;;14.58;100.00
18813;BME280;9534;51.140;6.296;2023-07-13T04:13:23;100567.56;;;14.58;100.00
18813;BME280;9534;51.140;6.296;2023-07-13T04:17:26;100548.41;;;14.63;100.00
18813;BME280;9534;51.140;6.296;2023-07-13T04:21:30;100567.06;;;14.61;100.00
18813;BME280;9534;51.140;6.296;2023-07-13T04:25:34;100570.81;;;14.67;100.00
18813;BME280;9534;51.140;6.296;2023-07-13T04:29:39;100562.28;;;14.68;100.00
18813;BME280;9534;51.140;6.296;2023-07-13T04:33:42;100573.31;;;14.68;100.00
18813;BME280;9534;51.140;6.296;2023-07-13T04:37:50;100579.56;;;14.75;100.00
18813;BME280;9534;51.140;6.296;2023-07-13T04:41:53;100574.03;;;14.75;100.00
18813;BME280;9534;51.140;6.296;2023-07-13T04:46:02;100572.97;;;14.76;100.00
18813;BME280;9534;51.140;6.296;2023-07-13T04:50:06;100581.94;;;14.83;100.00
18813;BME280;9534;51.140;6.296;2023-07-13T04:54:11;100578.84;;;14.91;100.00
18813;BME280;9534;51.140;6.296;2023-07-13T04:58:14;100580.03;;;14.95;100.00
18813;BME280;9534;51.140;6.296;2023-07-13T05:02:17;100579.81;;;15.08;100.00
18813;BME280;9534;51.140;6.296;2023-07-13T05:06:22;100596.91;;;15.21;100.00
18813;BME280;9534;51.140;6.296;2023-07-13T05:10:27;100582.75;;;15.29;100.00
18813;BME280;9534;51.140;6.296;2023-07-13T05:14:30;100593.09;;;15.34;100.00
18813;BME280;9534;51.140;6.296;2023-07-13T05:18:33;100583.38;;;15.43;100.00
18813;BME280;9534;51.140;6.296;2023-07-13T05:22:36;100593.31;;;15.44;100.00
18813;BME280;9534;51.140;6.296;2023-07-13T05:26:40;100599.31;;;15.52;100.00
18813;BME280;9534;51.140;6.296;2023-07-13T05:30:45;100608.41;;;15.64;100.00
18813;BME280;9534;51.140;6.296;2023-07-13T05:34:48;100605.88;;;15.63;100.00
18813;BME280;9534;51.140;6.296;2023-07-13T05:38:51;100607.28;;;15.77;100.00
18813;BME280;9534;51.140;6.296;2023-07-13T05:42:55;100606.47;;;15.76;100.00
18813;BME280;9534;51.140;6.296;2023-07-13T05:46:58;100617.44;;;15.88;100.00
18813;BME280;9534;51.140;6.296;2023-07-13T05:51:01;100618.84;;;16.02;100.00
18813;BME280;9534;51.140;6.296;2023-07-13T05:55:05;100631.38;;;16.20;100.00
18813;BME280;9534;51.140;6.296;2023-07-13T05:59:09;100616.16;;;16.34;100.00
18813;BME280;9534;51.140;6.296;2023-07-13T06:03:12;100616.75;;;16.64;100.00
18813;BME280;9534;51.140;6.296;2023-07-13T06:07:15;100621.84;;;16.72;100.00
18813;BME280;9534;51.140;6.296;2023-07-13T06:11:20;100622.28;;;16.64;100.00
18813;BME280;9534;51.140;6.296;2023-07-13T06:15:24;100631.31;;;16.60;100.00
18813;BME280;9534;51.140;6.296;2023-07-13T06:19:28;100646.22;;;16.59;100.00
18813;BME280;9534;51.140;6.296;2023-07-13T06:23:30;100641.88;;;16.79;100.00
18813;BME280;9534;51.140;6.296;2023-07-13T06:27:33;100647.72;;;16.66;100.00
18813;BME280;9534;51.140;6.296;2023-07-13T06:31:38;100652.25;;;16.72;100.00
18813;BME280;9534;51.140;6.296;2023-07-13T06:35:41;100662.53;;;16.60;100.00
18813;BME280;9534;51.140;6.296;2023-07-13T06:39:44;100663.63;;;16.76;100.00
18813;BME280;9534;51.140;6.296;2023-07-13T06:43:47;100669.69;;;16.89;100.00
18813;BME280;9534;51.140;6.296;2023-07-13T06:47:51;100673.22;;;17.01;100.00
18813;BME280;9534;51.140;6.296;2023-07-13T06:51:54;100678.06;;;17.27;100.00
18813;BME280;9534;51.140;6.296;2023-07-13T06:55:57;100671.78;;;17.15;100.00
18813;BME280;9534;51.140;6.296;2023-07-13T07:00:00;100683.28;;;17.24;100.00
18813;BME280;9534;51.140;6.296;2023-07-13T07:04:06;100668.31;;;17.41;100.00
18813;BME280;9534;51.140;6.296;2023-07-13T07:08:09;100679.84;;;17.49;100.00
18813;BME280;9534;51.140;6.296;2023-07-13T07:12:12;100681.13;;;17.80;100.00
18813;BME280;9534;51.140;6.296;2023-07-13T07:16:16;100682.44;;;17.56;100.00
18813;BME280;9534;51.140;6.296;2023-07-13T07:20:20;100679.19;;;17.80;100.00
18813;BME280;9534;51.140;6.296;2023-07-13T07:24:23;100681.72;;;17.82;100.00
18813;BME280;9534;51.140;6.296;2023-07-13T07:28:26;100681.72;;;17.82;100.00
18813;BME280;9534;51.140;6.296;2023-07-13T07:32:46;100688.13;;;18.09;100.00
18813;BME280;9534;51.140;6.296;2023-07-13T07:36:53;100686.31;;;17.98;100.00
18813;BME280;9534;51.140;6.296;2023-07-13T07:41:02;100697.38;;;17.93;100.00
18813;BME280;9534;51.140;6.296;2023-07-13T07:45:08;100700.19;;;17.98;100.00
18813;BME280;9534;51.140;6.296;2023-07-13T07:49:13;100686.00;;;18.16;100.00
18813;BME280;9534;51.140;6.296;2023-07-13T07:53:17;100679.38;;;18.17;100.00
18813;BME280;9534;51.140;6.296;2023-07-13T07:57:20;100687.19;;;18.41;100.00
18813;BME280;9534;51.140;6.296;2023-07-13T08:01:26;100683.75;;;18.56;100.00
18813;BME280;9534;51.140;6.296;2023-07-13T08:05:34;100689.88;;;18.84;100.00
18813;BME280;9534;51.140;6.296;2023-07-13T08:09:45;100700.50;;;18.65;100.00
18813;BME280;9534;51.140;6.296;2023-07-13T08:13:49;100679.69;;;19.21;100.00
18813;BME280;9534;51.140;6.296;2023-07-13T08:17:55;100681.22;;;18.80;100.00
18813;BME280;9534;51.140;6.296;2023-07-13T08:21:58;100678.41;;;19.33;100.00
18813;BME280;9534;51.140;6.296;2023-07-13T08:26:02;100673.22;;;19.15;100.00
18813;BME280;9534;51.140;6.296;2023-07-13T08:30:06;100672.28;;;19.31;100.00
18813;BME280;9534;51.140;6.296;2023-07-13T08:34:09;100689.25;;;19.08;100.00
18813;BME280;9534;51.140;6.296;2023-07-13T08:38:14;100671.47;;;19.04;100.00
18813;BME280;9534;51.140;6.296;2023-07-13T08:42:24;100676.44;;;19.34;100.00
18813;BME280;9534;51.140;6.296;2023-07-13T08:46:32;100671.38;;;18.94;100.00
18813;BME280;9534;51.140;6.296;2023-07-13T08:50:39;100673.28;;;19.20;100.00
18813;BME280;9534;51.140;6.296;2023-07-13T08:55:02;100673.19;;;19.88;100.00
18813;BME280;9534;51.140;6.296;2023-07-13T08:59:11;100665.75;;;19.47;100.00
18813;BME280;9534;51.140;6.296;2023-07-13T09:03:18;100666.88;;;19.51;100.00
18813;BME280;9534;51.140;6.296;2023-07-13T09:07:25;100674.09;;;19.52;100.00
18813;BME280;9534;51.140;6.296;2023-07-13T09:11:36;100672.34;;;19.41;100.00
18813;BME280;9534;51.140;6.296;2023-07-13T09:15:46;100673.69;;;19.75;100.00
18813;BME280;9534;51.140;6.296;2023-07-13T09:19:53;100679.66;;;20.75;100.00
18813;BME280;9534;51.140;6.296;2023-07-13T09:23:59;100668.38;;;19.69;100.00
18813;BME280;9534;51.140;6.296;2023-07-13T09:28:15;100674.81;;;19.79;100.00
18813;BME280;9534;51.140;6.296;2023-07-13T09:32:21;100670.03;;;20.16;100.00
18813;BME280;9534;51.140;6.296;2023-07-13T09:36:27;100670.13;;;20.36;100.00
18813;BME280;9534;51.140;6.296;2023-07-13T09:40:35;100660.72;;;20.72;100.00
18813;BME280;9534;51.140;6.296;2023-07-13T09:44:43;100668.06;;;21.13;100.00
18813;BME280;9534;51.140;6.296;2023-07-13T09:48:53;100661.88;;;21.60;100.00
18813;BME280;9534;51.140;6.296;2023-07-13T09:52:58;100670.31;;;22.82;100.00
18813;BME280;9534;51.140;6.296;2023-07-13T09:57:08;100666.28;;;21.96;100.00
18813;BME280;9534;51.140;6.296;2023-07-13T10:01:15;100659.81;;;22.69;100.00
18813;BME280;9534;51.140;6.296;2023-07-13T10:05:20;100668.91;;;22.84;100.00
18813;BME280;9534;51.140;6.296;2023-07-13T10:09:23;100667.50;;;23.54;100.00
18813;BME280;9534;51.140;6.296;2023-07-13T10:13:31;100668.53;;;24.14;100.00
18813;BME280;9534;51.140;6.296;2023-07-13T10:17:36;100679.72;;;22.96;100.00
18813;BME280;9534;51.140;6.296;2023-07-13T10:21:41;100672.91;;;22.10;100.00
18813;BME280;9534;51.140;6.296;2023-07-13T10:25:45;100668.69;;;22.76;100.00
18813;BME280;9534;51.140;6.296;2023-07-13T10:29:52;100671.59;;;24.78;100.00
18813;BME280;9534;51.140;6.296;2023-07-13T10:33:57;100679.13;;;23.94;100.00
18813;BME280;9534;51.140;6.296;2023-07-13T10:38:02;100682.75;;;22.99;100.00
18813;BME280;9534;51.140;6.296;2023-07-13T10:42:08;100674.75;;;22.88;100.00
18813;BME280;9534;51.140;6.296;2023-07-13T10:46:18;100681.78;;;23.19;100.00
18813;BME280;9534;51.140;6.296;2023-07-13T10:50:24;100682.69;;;22.66;100.00
18813;BME280;9534;51.140;6.296;2023-07-13T10:54:32;100686.56;;;22.75;100.00
18813;BME280;9534;51.140;6.296;2023-07-13T10:58:37;100683.75;;;22.12;100.00
18813;BME280;9534;51.140;6.296;2023-07-13T11:02:40;100676.53;;;22.69;100.00
18813;BME280;9534;51.140;6.296;2023-07-13T11:06:43;100690.84;;;23.68;100.00
18813;BME280;9534;51.140;6.296;2023-07-13T11:10:53;100666.53;;;24.20;100.00
18813;BME280;9534;51.140;6.296;2023-07-13T11:15:04;100673.06;;;23.82;100.00
18813;BME280;9534;51.140;6.296;2023-07-13T11:19:24;100689.47;;;23.93;100.00
18813;BME280;9534;51.140;6.296;2023-07-13T11:23:30;100677.28;;;24.31;100.00
18813;BME280;9534;51.140;6.296;2023-07-13T11:27:39;100683.16;;;24.06;100.00
18813;BME280;9534;51.140;6.296;2023-07-13T11:31:44;100683.97;;;23.83;100.00
18813;BME280;9534;51.140;6.296;2023-07-13T11:35:58;100669.09;;;23.65;100.00
18813;BME280;9534;51.140;6.296;2023-07-13T11:40:02;100675.53;;;23.88;100.00
18813;BME280;9534;51.140;6.296;2023-07-13T11:44:12;100687.47;;;24.22;100.00
18813;BME280;9534;51.140;6.296;2023-07-13T11:48:19;100675.03;;;24.94;100.00
18813;BME280;9534;51.140;6.296;2023-07-13T11:52:23;100688.00;;;23.73;100.00
18813;BME280;9534;51.140;6.296;2023-07-13T11:56:29;100670.94;;;24.68;100.00
18813;BME280;9534;51.140;6.296;2023-07-13T12:00:35;100661.69;;;25.04;100.00
18813;BME280;9534;51.140;6.296;2023-07-13T12:04:41;100670.88;;;25.87;100.00
18813;BME280;9534;51.140;6.296;2023-07-13T12:08:45;100678.94;;;26.07;100.00
18813;BME280;9534;51.140;6.296;2023-07-13T12:12:51;100677.16;;;24.41;100.00
18813;BME280;9534;51.140;6.296;2023-07-13T12:16:56;100665.69;;;24.19;100.00
18813;BME280;9534;51.140;6.296;2023-07-13T12:20:59;100660.94;;;24.62;100.00
18813;BME280;9534;51.140;6.296;2023-07-13T12:25:03;100657.31;;;25.62;100.00
18813;BME280;9534;51.140;6.296;2023-07-13T12:29:07;100669.38;;;25.49;100.00
18813;BME280;9534;51.140;6.296;2023-07-13T12:33:12;100678.47;;;24.25;100.00
18813;BME280;9534;51.140;6.296;2023-07-13T12:37:16;100670.00;;;23.55;100.00
18813;BME280;9534;51.140;6.296;2023-07-13T12:41:19;100655.84;;;23.47;100.00
18813;BME280;9534;51.140;6.296;2023-07-13T12:45:25;100659.19;;;23.15;100.00
18813;BME280;9534;51.140;6.296;2023-07-13T12:49:31;100674.69;;;24.35;100.00
18813;BME280;9534;51.140;6.296;2023-07-13T12:53:38;100663.19;;;23.38;100.00
18813;BME280;9534;51.140;6.296;2023-07-13T12:57:44;100657.75;;;23.18;100.00
18813;BME280;9534;51.140;6.296;2023-07-13T13:01:51;100677.16;;;22.99;100.00
18813;BME280;9534;51.140;6.296;2023-07-13T13:05:58;100659.97;;;24.29;100.00
18813;BME280;9534;51.140;6.296;2023-07-13T13:10:10;100670.75;;;23.66;100.00
18813;BME280;9534;51.140;6.296;2023-07-13T13:14:14;100669.56;;;23.72;100.00
18813;BME280;9534;51.140;6.296;2023-07-13T13:18:18;100662.88;;;23.44;100.00
18813;BME280;9534;51.140;6.296;2023-07-13T13:22:23;100653.59;;;24.00;100.00
18813;BME280;9534;51.140;6.296;2023-07-13T13:26:26;100660.44;;;24.36;100.00
18813;BME280;9534;51.140;6.296;2023-07-13T13:30:29;100657.91;;;24.58;100.00
18813;BME280;9534;51.140;6.296;2023-07-13T13:34:33;100660.25;;;24.70;100.00
18813;BME280;9534;51.140;6.296;2023-07-13T13:38:37;100653.91;;;24.64;100.00
18813;BME280;9534;51.140;6.296;2023-07-13T13:42:40;100668.06;;;24.07;100.00
18813;BME280;9534;51.140;6.296;2023-07-13T13:46:43;100667.31;;;24.67;100.00
18813;BME280;9534;51.140;6.296;2023-07-13T13:50:47;100652.66;;;24.52;100.00
18813;BME280;9534;51.140;6.296;2023-07-13T13:54:52;100663.22;;;23.33;100.00
18813;BME280;9534;51.140;6.296;2023-07-13T13:58:57;100661.25;;;23.00;100.00
18813;BME280;9534;51.140;6.296;2023-07-13T14:03:00;100672.59;;;22.75;100.00
18813;BME280;9534;51.140;6.296;2023-07-13T14:07:03;100671.09;;;22.39;100.00
18813;BME280;9534;51.140;6.296;2023-07-13T14:11:08;100676.25;;;20.53;100.00
18813;BME280;9534;51.140;6.296;2023-07-13T14:15:14;100680.19;;;19.95;100.00
18813;BME280;9534;51.140;6.296;2023-07-13T14:19:20;100676.47;;;19.80;100.00
18813;BME280;9534;51.140;6.296;2023-07-13T14:23:23;100688.97;;;20.24;100.00
18813;BME280;9534;51.140;6.296;2023-07-13T14:27:28;100680.16;;;20.42;100.00
18813;BME280;9534;51.140;6.296;2023-07-13T14:31:31;100694.75;;;20.94;100.00
18813;BME280;9534;51.140;6.296;2023-07-13T14:35:35;100690.31;;;21.18;100.00
18813;BME280;9534;51.140;6.296;2023-07-13T14:39:39;100695.88;;;21.03;100.00
18813;BME280;9534;51.140;6.296;2023-07-13T14:43:44;100712.00;;;21.01;100.00
18813;BME280;9534;51.140;6.296;2023-07-13T14:47:48;100723.13;;;20.91;100.00
18813;BME280;9534;51.140;6.296;2023-07-13T14:51:51;100720.25;;;20.66;100.00
18813;BME280;9534;51.140;6.296;2023-07-13T14:55:54;100731.03;;;19.96;100.00
18813;BME280;9534;51.140;6.296;2023-07-13T14:59:59;100740.72;;;19.88;100.00
18813;BME280;9534;51.140;6.296;2023-07-13T15:04:03;100748.75;;;19.49;100.00
18813;BME280;9534;51.140;6.296;2023-07-13T15:08:07;100736.97;;;19.37;100.00
18813;BME280;9534;51.140;6.296;2023-07-13T15:12:12;100739.41;;;19.28;100.00
18813;BME280;9534;51.140;6.296;2023-07-13T15:16:17;100757.22;;;19.32;100.00
18813;BME280;9534;51.140;6.296;2023-07-13T15:20:23;100749.72;;;19.06;100.00
18813;BME280;9534;51.140;6.296;2023-07-13T15:24:29;100739.66;;;19.27;100.00
18813;BME280;9534;51.140;6.296;2023-07-13T15:28:32;100745.63;;;19.40;100.00
18813;BME280;9534;51.140;6.296;2023-07-13T15:32:37;100735.72;;;19.49;100.00
18813;BME280;9534;51.140;6.296;2023-07-13T15:36:41;100733.06;;;19.64;100.00
18813;BME280;9534;51.140;6.296;2023-07-13T15:40:44;100735.31;;;19.72;100.00
18813;BME280;9534;51.140;6.296;2023-07-13T15:44:48;100721.72;;;19.71;100.00
18813;BME280;9534;51.140;6.296;2023-07-13T15:48:52;100716.56;;;19.94;100.00
18813;BME280;9534;51.140;6.296;2023-07-13T15:52:56;100716.56;;;19.94;100.00
18813;BME280;9534;51.140;6.296;2023-07-13T15:57:01;100709.97;;;20.05;100.00
18813;BME280;9534;51.140;6.296;2023-07-13T16:01:08;100705.75;;;20.54;100.00
18813;BME280;9534;51.140;6.296;2023-07-13T16:05:14;100706.88;;;20.58;100.00
18813;BME280;9534;51.140;6.296;2023-07-13T16:09:18;100703.69;;;21.16;100.00
18813;BME280;9534;51.140;6.296;2023-07-13T16:13:22;100694.41;;;21.95;100.00
18813;BME280;9534;51.140;6.296;2023-07-13T16:17:27;100703.38;;;23.42;100.00
18813;BME280;9534;51.140;6.296;2023-07-13T16:21:32;100705.72;;;23.30;100.00
18813;BME280;9534;51.140;6.296;2023-07-13T16:25:37;100701.38;;;23.09;100.00
18813;BME280;9534;51.140;6.296;2023-07-13T16:29:40;100704.59;;;23.59;100.00
18813;BME280;9534;51.140;6.296;2023-07-13T16:33:44;100714.88;;;23.69;100.00
18813;BME280;9534;51.140;6.296;2023-07-13T16:37:48;100700.16;;;23.25;100.00
18813;BME280;9534;51.140;6.296;2023-07-13T16:42:03;100707.38;;;23.31;100.00
18813;BME280;9534;51.140;6.296;2023-07-13T16:46:07;100717.03;;;23.76;100.00
18813;BME280;9534;51.140;6.296;2023-07-13T16:50:13;100710.63;;;22.61;100.00
18813;BME280;9534;51.140;6.296;2023-07-13T16:54:18;100701.50;;;22.94;100.00
18813;BME280;9534;51.140;6.296;2023-07-13T16:58:21;100711.31;;;23.30;100.00
18813;BME280;9534;51.140;6.296;2023-07-13T17:02:32;100714.09;;;23.30;100.00
18813;BME280;9534;51.140;6.296;2023-07-13T17:06:37;100717.84;;;23.10;100.00
18813;BME280;9534;51.140;6.296;2023-07-13T17:10:43;100718.66;;;22.67;100.00
18813;BME280;9534;51.140;6.296;2023-07-13T17:14:47;100715.09;;;23.05;100.00
18813;BME280;9534;51.140;6.296;2023-07-13T17:18:50;100720.75;;;22.37;100.00
18813;BME280;9534;51.140;6.296;2023-07-13T17:22:53;100726.38;;;22.22;100.00
18813;BME280;9534;51.140;6.296;2023-07-13T17:26:58;100728.94;;;22.14;100.00
18813;BME280;9534;51.140;6.296;2023-07-13T17:31:01;100724.81;;;21.96;100.00
18813;BME280;9534;51.140;6.296;2023-07-13T17:35:12;100725.34;;;22.03;100.00
18813;BME280;9534;51.140;6.296;2023-07-13T17:39:19;100713.38;;;21.93;100.00
18813;BME280;9534;51.140;6.296;2023-07-13T17:43:24;100720.31;;;22.05;100.00
18813;BME280;9534;51.140;6.296;2023-07-13T17:47:27;100717.31;;;21.77;100.00
18813;BME280;9534;51.140;6.296;2023-07-13T17:51:30;100717.56;;;21.90;100.00
18813;BME280;9534;51.140;6.296;2023-07-13T17:55:33;100713.66;;;21.96;100.00
18813;BME280;9534;51.140;6.296;2023-07-13T17:59:38;100715.31;;;21.97;100.00
18813;BME280;9534;51.140;6.296;2023-07-13T18:03:41;100726.50;;;21.62;100.00
18813;BME280;9534;51.140;6.296;2023-07-13T18:07:46;100714.22;;;21.68;100.00
18813;BME280;9534;51.140;6.296;2023-07-13T18:11:49;100712.03;;;21.30;100.00
18813;BME280;9534;51.140;6.296;2023-07-13T18:15:54;100720.59;;;20.94;100.00
18813;BME280;9534;51.140;6.296;2023-07-13T18:19:59;100724.72;;;20.72;100.00
18813;BME280;9534;51.140;6.296;2023-07-13T18:24:02;100725.78;;;20.61;100.00
18813;BME280;9534;51.140;6.296;2023-07-13T18:28:06;100730.19;;;20.52;100.00
18813;BME280;9534;51.140;6.296;2023-07-13T18:32:13;100721.84;;;20.52;100.00
18813;BME280;9534;51.140;6.296;2023-07-13T18:36:19;100726.88;;;20.50;100.00
18813;BME280;9534;51.140;6.296;2023-07-13T18:40:23;100724.03;;;20.35;100.00
18813;BME280;9534;51.140;6.296;2023-07-13T18:44:27;100723.47;;;20.28;100.00
18813;BME280;9534;51.140;6.296;2023-07-13T18:48:32;100722.88;;;20.21;100.00
18813;BME280;9534;51.140;6.296;2023-07-13T18:52:35;100715.59;;;20.15;100.00
18813;BME280;9534;51.140;6.296;2023-07-13T18:56:38;100722.19;;;20.04;100.00
18813;BME280;9534;51.140;6.296;2023-07-13T19:00:41;100720.44;;;19.93;100.00
18813;BME280;9534;51.140;6.296;2023-07-13T19:04:47;100719.25;;;19.79;100.00
18813;BME280;9534;51.140;6.296;2023-07-13T19:08:51;100725.00;;;19.68;100.00
18813;BME280;9534;51.140;6.296;2023-07-13T19:12:55;100735.81;;;19.59;100.00
18813;BME280;9534;51.140;6.296;2023-07-13T19:17:00;100726.50;;;19.44;100.00
18813;BME280;9534;51.140;6.296;2023-07-13T19:21:05;100741.63;;;19.26;100.00
18813;BME280;9534;51.140;6.296;2023-07-13T19:25:14;100742.97;;;19.24;100.00
18813;BME280;9534;51.140;6.296;2023-07-13T19:29:18;100754.22;;;19.12;100.00
18813;BME280;9534;51.140;6.296;2023-07-13T19:33:22;100752.59;;;18.90;100.00
18813;BME280;9534;51.140;6.296;2023-07-13T19:37:26;100755.09;;;18.65;100.00
18813;BME280;9534;51.140;6.296;2023-07-13T19:41:29;100763.94;;;18.41;100.00
18813;BME280;9534;51.140;6.296;2023-07-13T19:45:36;100775.09;;;18.08;100.00
18813;BME280;9534;51.140;6.296;2023-07-13T19:49:39;100790.00;;;17.85;100.00
18813;BME280;9534;51.140;6.296;2023-07-13T19:53:44;100793.25;;;17.99;100.00
18813;BME280;9534;51.140;6.296;2023-07-13T19:57:47;100783.72;;;17.90;100.00
18813;BME280;9534;51.140;6.296;2023-07-13T20:01:50;100789.44;;;17.67;100.00
18813;BME280;9534;51.140;6.296;2023-07-13T20:05:53;100800.56;;;17.39;100.00
18813;BME280;9534;51.140;6.296;2023-07-13T20:09:57;100813.78;;;17.21;100.00
18813;BME280;9534;51.140;6.296;2023-07-13T20:14:00;100818.84;;;17.12;100.00
18813;BME280;9534;51.140;6.296;2023-07-13T20:18:03;100819.78;;;17.01;100.00
18813;BME280;9534;51.140;6.296;2023-07-13T20:22:08;100819.53;;;17.03;100.00
18813;BME280;9534;51.140;6.296;2023-07-13T20:26:14;100827.59;;;17.04;100.00
18813;BME280;9534;51.140;6.296;2023-07-13T20:30:19;100817.03;;;17.01;100.00
18813;BME280;9534;51.140;6.296;2023-07-13T20:34:23;100820.88;;;17.00;100.00
18813;BME280;9534;51.140;6.296;2023-07-13T20:38:27;100819.00;;;16.89;100.00
18813;BME280;9534;51.140;6.296;2023-07-13T20:42:32;100829.94;;;16.84;100.00
18813;BME280;9534;51.140;6.296;2023-07-13T20:46:35;100828.44;;;16.65;100.00
18813;BME280;9534;51.140;6.296;2023-07-13T20:50:38;100838.09;;;16.51;100.00
18813;BME280;9534;51.140;6.296;2023-07-13T20:54:41;100845.06;;;16.42;100.00
18813;BME280;9534;51.140;6.296;2023-07-13T20:58:47;100846.25;;;16.46;100.00
18813;BME280;9534;51.140;6.296;2023-07-13T21:02:50;100845.19;;;16.47;100.00
18813;BME280;9534;51.140;6.296;2023-07-13T21:06:54;100855.75;;;16.27;100.00
18813;BME280;9534;51.140;6.296;2023-07-13T21:10:57;100847.22;;;16.52;100.00
18813;BME280;9534;51.140;6.296;2023-07-13T21:15:01;100845.06;;;16.42;100.00
18813;BME280;9534;51.140;6.296;2023-07-13T21:19:04;100853.50;;;16.24;100.00
18813;BME280;9534;51.140;6.296;2023-07-13T21:23:11;100861.53;;;16.14;100.00